createdAt,value
2019-02-11T00:00:39.737Z,99.89
2019-02-11T00:01:39.636Z,99.69
2019-02-11T00:02:39.663Z,99.07
2019-02-11T00:03:39.677Z,99.16
2019-02-11T00:04:39.788Z,98.78
2019-02-11T00:05:39.819Z,98.49
2019-02-11T00:06:39.728Z,98.78
2019-02-11T00:07:39.862Z,98.39
2019-02-11T00:08:39.757Z,98.58
2019-02-11T00:09:39.888Z,97.91
2019-02-11T00:10:39.910Z,97.72
2019-02-11T00:11:39.818Z,97.72
2019-02-11T00:12:39.824Z,97.13
2019-02-11T00:13:39.969Z,97.72
2019-02-11T00:14:39.974Z,97.33
2019-02-11T00:15:39.884Z,97.33
2019-02-11T00:16:40.010Z,97.08
2019-02-11T00:17:39.905Z,97.52
2019-02-11T00:18:40.044Z,97.57
2019-02-11T00:19:40.059Z,97.23
2019-02-11T00:20:40.179Z,97.23
2019-02-11T00:21:40.095Z,97.62
2019-02-11T00:22:40.116Z,97.52
2019-02-11T00:23:40.132Z,97.04
2019-02-11T00:24:40.088Z,97.04
2019-02-11T00:25:40.189Z,97.28
2019-02-11T00:26:40.085Z,97.28
2019-02-11T00:27:40.106Z,97.04
2019-02-11T00:28:40.146Z,97.28
2019-02-11T00:29:40.236Z,97.67
2019-02-11T00:30:40.266Z,97.57
2019-02-11T00:31:40.141Z,97.57
2019-02-11T00:32:40.171Z,97.57
2019-02-11T00:33:40.311Z,97.76
2019-02-11T00:34:40.329Z,97.38
2019-02-11T00:35:40.311Z,97.57
2019-02-11T00:36:40.363Z,97.57
2019-02-11T00:37:40.260Z,97.76
2019-02-11T00:38:40.390Z,96.89
2019-02-11T00:39:40.296Z,97.08
2019-02-11T00:40:40.529Z,97.08
2019-02-11T00:41:40.308Z,96.99
2019-02-11T00:42:40.363Z,96.41
2019-02-11T00:43:40.364Z,95.83
2019-02-11T00:44:40.370Z,96.22
2019-02-11T00:45:40.503Z,96.12
2019-02-11T00:46:40.532Z,95.73
2019-02-11T00:47:40.429Z,96.31
2019-02-11T00:48:40.564Z,96.41
2019-02-11T00:49:40.464Z,96.31
2019-02-11T00:50:40.589Z,96.50
2019-02-11T00:51:40.552Z,97.08
2019-02-11T00:52:40.535Z,96.50
2019-02-11T00:53:40.518Z,96.12
2019-02-11T00:54:40.594Z,96.60
2019-02-11T00:55:40.652Z,96.60
2019-02-11T00:56:40.593Z,96.22
2019-02-11T00:57:40.602Z,96.41
2019-02-11T00:58:40.615Z,96.02
2019-02-11T00:59:40.643Z,96.02
2019-02-11T01:00:40.822Z,96.12
2019-02-11T01:01:40.654Z,96.31
2019-02-11T01:02:40.808Z,95.92
2019-02-11T01:03:40.824Z,95.44
2019-02-11T01:04:40.820Z,95.44
2019-02-11T01:05:40.750Z,95.73
2019-02-11T01:06:40.772Z,95.44
2019-02-11T01:07:40.786Z,95.34
2019-02-11T01:08:40.777Z,94.96
2019-02-11T01:09:40.942Z,95.05
2019-02-11T01:10:40.854Z,95.15
2019-02-11T01:11:40.858Z,94.96
2019-02-11T01:12:40.875Z,94.96
2019-02-11T01:13:40.877Z,95.05
2019-02-11T01:14:41.046Z,94.76
2019-02-11T01:15:40.935Z,95.15
2019-02-11T01:16:40.942Z,95.15
2019-02-11T01:17:40.940Z,94.57
2019-02-11T01:18:41.088Z,94.28
2019-02-11T01:19:41.095Z,94.76
2019-02-11T01:20:41.117Z,94.47
2019-02-11T01:21:41.031Z,94.28
2019-02-11T01:22:41.037Z,94.47
2019-02-11T01:23:41.117Z,94.57
2019-02-11T01:24:41.176Z,94.57
2019-02-11T01:25:41.069Z,94.47
2019-02-11T01:26:41.120Z,94.47
2019-02-11T01:27:41.240Z,94.57
2019-02-11T01:28:41.253Z,94.18
2019-02-11T01:29:41.386Z,94.28
2019-02-11T01:30:41.291Z,93.89
2019-02-11T01:31:41.183Z,94.47
2019-02-11T01:32:41.224Z,94.57
2019-02-11T01:33:41.245Z,94.37
2019-02-11T01:34:41.340Z,94.57
2019-02-11T01:35:41.271Z,94.18
2019-02-11T01:36:41.399Z,94.28
2019-02-11T01:37:41.413Z,94.28
2019-02-11T01:38:41.359Z,93.89
2019-02-11T01:39:41.503Z,94.09
2019-02-11T01:40:41.459Z,94.09
2019-02-11T01:41:41.485Z,94.09
2019-02-11T01:42:41.498Z,94.47
2019-02-11T01:43:41.412Z,94.28
2019-02-11T01:44:41.406Z,93.89
2019-02-11T01:45:41.658Z,94.09
2019-02-11T01:46:41.459Z,94.09
2019-02-11T01:47:41.599Z,94.18
2019-02-11T01:48:41.480Z,94.28
2019-02-11T01:49:41.494Z,94.96
2019-02-11T01:50:41.615Z,95.34
2019-02-11T01:51:41.532Z,94.86
2019-02-11T01:52:41.559Z,95.05
2019-02-11T01:53:41.574Z,95.05
2019-02-11T01:54:41.607Z,95.15
2019-02-11T01:55:41.715Z,95.25
2019-02-11T01:56:41.635Z,94.86
2019-02-11T01:57:41.652Z,95.05
2019-02-11T01:58:41.674Z,95.05
2019-02-11T01:59:41.682Z,95.20
2019-02-11T02:00:41.819Z,95.59
2019-02-11T02:01:41.693Z,96.17
2019-02-11T02:02:41.733Z,96.26
2019-02-11T02:03:41.772Z,96.12
2019-02-11T02:04:41.778Z,96.55
2019-02-11T02:05:41.997Z,96.22
2019-02-11T02:06:41.801Z,96.46
2019-02-11T02:07:41.816Z,96.36
2019-02-11T02:08:41.825Z,96.60
2019-02-11T02:09:41.860Z,96.60
2019-02-11T02:10:42.192Z,96.55
2019-02-11T02:11:42.006Z,96.41
2019-02-11T02:12:41.930Z,96.36
2019-02-11T02:13:44.955Z,97.13
2019-02-11T02:14:41.940Z,97.18
2019-02-11T02:15:42.122Z,97.18
2019-02-11T02:16:41.977Z,96.94
2019-02-11T02:17:42.113Z,97.23
2019-02-11T02:18:42.107Z,97.57
2019-02-11T02:19:42.037Z,97.18
2019-02-11T02:20:42.161Z,97.18
2019-02-11T02:21:42.177Z,96.89
2019-02-11T02:22:42.194Z,96.89
2019-02-11T02:23:42.257Z,96.89
2019-02-11T02:24:42.130Z,96.70
2019-02-11T02:25:42.139Z,96.50
2019-02-11T02:26:42.138Z,97.08
2019-02-11T02:27:42.270Z,96.31
2019-02-11T02:28:42.305Z,96.50
2019-02-11T02:29:42.247Z,96.50
2019-02-11T02:30:42.205Z,96.41
2019-02-11T02:31:42.238Z,96.50
2019-02-11T02:32:42.462Z,96.70
2019-02-11T02:33:42.391Z,96.89
2019-02-11T02:34:42.399Z,97.38
2019-02-11T02:35:42.281Z,97.57
2019-02-11T02:36:42.335Z,97.86
2019-02-11T02:37:42.553Z,97.57
2019-02-11T02:38:42.477Z,96.99
2019-02-11T02:39:42.499Z,96.70
2019-02-11T02:40:42.397Z,96.50
2019-02-11T02:41:42.423Z,96.31
2019-02-11T02:42:42.638Z,96.22
2019-02-11T02:43:42.461Z,96.60
2019-02-11T02:44:42.571Z,96.41
2019-02-11T02:45:42.590Z,96.41
2019-02-11T02:46:42.606Z,96.80
2019-02-11T02:47:42.591Z,96.89
2019-02-11T02:48:42.647Z,96.89
2019-02-11T02:49:42.560Z,96.99
2019-02-11T02:50:42.682Z,97.33
2019-02-11T02:51:42.574Z,97.57
2019-02-11T02:52:42.661Z,97.57
2019-02-11T02:53:42.727Z,97.52
2019-02-11T02:54:42.638Z,97.67
2019-02-11T02:55:42.758Z,97.23
2019-02-11T02:56:42.789Z,97.57
2019-02-11T02:57:42.832Z,96.94
2019-02-11T02:58:42.823Z,97.42
2019-02-11T02:59:42.726Z,97.52
2019-02-11T03:00:42.740Z,96.84
2019-02-11T03:01:42.743Z,97.33
2019-02-11T03:02:42.937Z,97.33
2019-02-11T03:03:42.776Z,96.84
2019-02-11T03:04:42.781Z,97.08
2019-02-11T03:05:42.837Z,96.36
2019-02-11T03:06:42.839Z,96.36
2019-02-11T03:07:42.973Z,95.97
2019-02-11T03:08:42.885Z,96.46
2019-02-11T03:09:42.904Z,96.26
2019-02-11T03:10:42.940Z,95.87
2019-02-11T03:11:42.939Z,96.36
2019-02-11T03:12:43.053Z,96.36
2019-02-11T03:13:43.076Z,96.26
2019-02-11T03:14:43.099Z,95.87
2019-02-11T03:15:43.102Z,96.26
2019-02-11T03:16:43.030Z,96.07
2019-02-11T03:17:43.149Z,96.65
2019-02-11T03:18:43.045Z,96.65
2019-02-11T03:19:43.056Z,97.04
2019-02-11T03:21:43.211Z,97.04
2019-02-11T03:22:43.109Z,96.75
2019-02-11T03:23:43.164Z,96.17
2019-02-11T03:24:43.260Z,95.97
2019-02-11T03:25:43.264Z,96.17
2019-02-11T03:26:43.234Z,95.97
2019-02-11T03:27:43.204Z,96.17
2019-02-11T03:28:43.218Z,96.51
2019-02-11T03:29:43.344Z,96.41
2019-02-11T03:30:43.515Z,96.89
2019-02-11T03:31:43.271Z,96.31
2019-02-11T03:32:43.286Z,96.70
2019-02-11T03:33:43.428Z,96.80
2019-02-11T03:34:43.440Z,96.89
2019-02-11T03:35:43.502Z,97.47
2019-02-11T03:36:43.348Z,98.35
2019-02-11T03:37:43.486Z,98.25
2019-02-11T03:38:43.393Z,97.86
2019-02-11T03:39:43.472Z,98.35
2019-02-11T03:40:43.470Z,98.05
2019-02-11T03:41:43.557Z,98.25
2019-02-11T03:42:43.473Z,98.05
2019-02-11T03:43:43.481Z,97.47
2019-02-11T03:44:43.501Z,97.47
2019-02-11T03:45:43.731Z,96.89
2019-02-11T03:46:43.531Z,96.89
2019-02-11T03:47:43.585Z,96.31
2019-02-11T03:48:43.668Z,95.83
2019-02-11T03:49:43.575Z,96.02
2019-02-11T03:50:43.694Z,95.15
2019-02-11T03:51:43.617Z,95.15
2019-02-11T03:52:43.635Z,95.25
2019-02-11T03:53:43.761Z,94.96
2019-02-11T03:54:43.769Z,95.54
2019-02-11T03:55:43.795Z,95.06
2019-02-11T03:56:43.711Z,94.96
2019-02-11T03:57:43.742Z,94.86
2019-02-11T03:58:43.854Z,94.76
2019-02-11T03:59:43.790Z,94.76
2019-02-11T04:00:44.073Z,94.96
2019-02-11T04:01:43.758Z,94.76
2019-02-11T04:02:43.795Z,94.86
2019-02-11T04:03:43.949Z,95.25
2019-02-11T04:04:43.944Z,95.06
2019-02-11T04:05:44.008Z,94.86
2019-02-11T04:06:43.899Z,94.96
2019-02-11T04:07:43.997Z,95.06
2019-02-11T04:08:43.889Z,95.06
2019-02-11T04:09:43.933Z,95.25
2019-02-11T04:10:43.988Z,95.15
2019-02-11T04:11:43.947Z,95.06
2019-02-11T04:12:44.090Z,94.86
2019-02-11T04:13:44.000Z,94.57
2019-02-11T04:14:43.975Z,95.15
2019-02-11T04:15:44.083Z,95.20
2019-02-11T04:16:44.056Z,95.30
2019-02-11T04:17:44.167Z,95.40
2019-02-11T04:18:44.073Z,95.40
2019-02-11T04:19:44.067Z,95.78
2019-02-11T04:20:44.160Z,96.17
2019-02-11T04:21:44.129Z,95.98
2019-02-11T04:22:44.142Z,96.36
2019-02-11T04:23:44.161Z,96.31
2019-02-11T04:24:44.161Z,96.70
2019-02-11T04:25:44.352Z,97.23
2019-02-11T04:26:44.198Z,97.28
2019-02-11T04:27:44.331Z,97.38
2019-02-11T04:28:44.284Z,97.28
2019-02-11T04:29:44.262Z,97.38
2019-02-11T04:30:44.261Z,97.23
2019-02-11T04:31:44.304Z,97.28
2019-02-11T04:32:44.307Z,97.67
2019-02-11T04:33:44.582Z,97.57
2019-02-11T04:34:44.450Z,98.05
2019-02-11T04:35:44.337Z,97.62
2019-02-11T04:36:44.369Z,97.96
2019-02-11T04:37:44.395Z,97.96
2019-02-11T04:38:44.567Z,97.57
2019-02-11T04:39:44.538Z,97.57
2019-02-11T04:40:44.451Z,98.05
2019-02-11T04:41:44.507Z,97.47
2019-02-11T04:42:44.584Z,97.38
2019-02-11T04:43:44.686Z,97.77
2019-02-11T04:44:44.624Z,97.38
2019-02-11T04:45:44.528Z,97.57
2019-02-11T04:46:44.557Z,98.05
2019-02-11T04:47:44.593Z,97.86
2019-02-11T04:48:44.675Z,98.35
2019-02-11T04:49:44.701Z,98.05
2019-02-11T04:50:44.616Z,98.25
2019-02-11T04:51:44.603Z,98.35
2019-02-11T04:52:44.663Z,97.77
2019-02-11T04:53:44.699Z,97.77
2019-02-11T04:54:44.798Z,98.05
2019-02-11T04:55:44.694Z,98.15
2019-02-11T04:56:44.699Z,98.44
2019-02-11T04:57:44.836Z,98.35
2019-02-11T04:58:45.004Z,98.44
2019-02-11T04:59:44.873Z,97.67
2019-02-11T05:00:44.777Z,98.35
2019-02-11T05:01:44.835Z,97.77
2019-02-11T05:02:44.810Z,98.25
2019-02-11T05:03:44.922Z,99.11
2019-02-11T05:04:44.967Z,99.21
2019-02-11T05:05:44.972Z,99.02
2019-02-11T05:06:44.873Z,99.11
2019-02-11T05:07:45.005Z,98.83
2019-02-11T05:08:45.131Z,99.11
2019-02-11T05:09:44.931Z,98.83
2019-02-11T05:10:45.057Z,98.63
2019-02-11T05:11:44.961Z,98.54
2019-02-11T05:12:44.977Z,98.93
2019-02-11T05:13:45.156Z,98.73
2019-02-11T05:14:45.013Z,98.83
2019-02-11T05:15:45.077Z,98.35
2019-02-11T05:16:45.310Z,98.63
2019-02-11T05:17:45.098Z,99.21
2019-02-11T05:18:45.192Z,99.11
2019-02-11T05:19:45.211Z,99.07
2019-02-11T05:20:45.135Z,99.26
2019-02-11T05:21:45.405Z,99.16
2019-02-11T05:22:45.182Z,99.74
2019-02-11T05:23:45.282Z,99.94
2019-02-11T05:24:45.175Z,99.74
2019-02-11T05:25:45.306Z,99.74
2019-02-11T05:26:45.261Z,99.94
2019-02-11T05:27:45.242Z,99.99
2019-02-11T05:28:45.253Z,99.99
2019-02-11T05:29:45.268Z,99.99
2019-02-11T05:30:45.320Z,99.99
2019-02-11T05:31:45.405Z,99.99
2019-02-11T05:32:45.327Z,99.99
2019-02-11T05:33:45.374Z,99.99
2019-02-11T05:34:45.464Z,99.99
2019-02-11T05:35:45.344Z,99.99
2019-02-11T05:36:45.499Z,99.99
2019-02-11T05:37:45.507Z,99.99
2019-02-11T05:38:45.409Z,99.99
2019-02-11T05:39:45.427Z,99.99
2019-02-11T05:40:45.561Z,99.99
2019-02-11T05:41:45.638Z,99.99
2019-02-11T05:42:45.471Z,99.99
2019-02-11T05:43:45.491Z,99.99
2019-02-11T05:44:53.778Z,99.99
2019-02-11T05:45:45.643Z,99.99
2019-02-11T05:46:45.758Z,99.99
2019-02-11T05:47:45.687Z,99.99
2019-02-11T05:48:45.585Z,99.99
2019-02-11T05:49:45.595Z,99.79
2019-02-11T05:50:45.623Z,99.99
2019-02-11T05:51:45.730Z,99.31
2019-02-11T05:52:45.757Z,99.89
2019-02-11T05:53:45.773Z,99.31
2019-02-11T05:54:45.670Z,99.69
2019-02-11T05:55:45.697Z,99.69
2019-02-11T05:56:45.971Z,99.99
2019-02-11T05:57:45.746Z,99.79
2019-02-11T05:58:45.854Z,99.79
2019-02-11T05:59:45.767Z,98.93
2019-02-11T06:00:45.896Z,99.99
2019-02-11T06:01:45.957Z,99.74
2019-02-11T06:02:45.974Z,99.99
2019-02-11T06:03:45.935Z,99.21
2019-02-11T06:04:46.007Z,99.16
2019-02-11T06:05:45.969Z,99.74
2019-02-11T06:06:45.886Z,99.45
2019-02-11T06:07:46.005Z,99.36
2019-02-11T06:08:45.969Z,99.74
2019-02-11T06:09:45.931Z,99.74
2019-02-11T06:10:46.062Z,99.26
2019-02-11T06:11:45.952Z,99.74
2019-02-11T06:12:46.040Z,99.84
2019-02-11T06:13:46.005Z,99.99
2019-02-11T06:14:46.009Z,99.99
2019-02-11T06:15:46.026Z,99.99
2019-02-11T06:16:46.149Z,99.99
2019-02-11T06:17:46.267Z,99.99
2019-02-11T06:18:46.078Z,99.99
2019-02-11T06:19:46.085Z,99.99
2019-02-11T06:20:46.218Z,99.99
2019-02-11T06:21:46.113Z,99.99
2019-02-11T06:22:46.248Z,99.99
2019-02-11T06:23:46.159Z,99.99
2019-02-11T06:24:46.221Z,99.99
2019-02-11T06:25:46.299Z,99.99
2019-02-11T06:26:46.316Z,99.99
2019-02-11T06:27:46.235Z,99.99
2019-02-11T06:28:46.456Z,99.99
2019-02-11T06:29:46.254Z,99.99
2019-02-11T06:30:46.258Z,99.99
2019-02-11T06:31:46.291Z,99.99
2019-02-11T06:32:46.333Z,99.99
2019-02-11T06:33:46.417Z,99.99
2019-02-11T06:34:46.450Z,99.99
2019-02-11T06:35:46.373Z,99.99
2019-02-11T06:36:46.481Z,99.99
2019-02-11T06:37:46.496Z,99.99
2019-02-11T06:38:46.464Z,99.99
2019-02-11T06:39:46.540Z,99.99
2019-02-11T06:40:46.441Z,99.99
2019-02-11T06:41:46.441Z,99.99
2019-02-11T06:42:46.444Z,99.99
2019-02-11T06:43:46.598Z,99.99
2019-02-11T06:44:46.622Z,99.99
2019-02-11T06:45:46.530Z,99.99
2019-02-11T06:46:46.531Z,99.99
2019-02-11T06:47:46.555Z,99.99
2019-02-11T06:48:46.650Z,99.99
2019-02-11T06:49:46.697Z,99.99
2019-02-11T06:50:46.713Z,99.99
2019-02-11T06:51:46.726Z,99.99
2019-02-11T06:52:46.641Z,99.99
2019-02-11T06:53:46.918Z,99.99
2019-02-11T06:54:46.733Z,99.99
2019-02-11T06:55:46.689Z,99.99
2019-02-11T06:56:46.709Z,99.99
2019-02-11T06:57:46.825Z,99.99
2019-02-11T06:58:46.826Z,99.99
2019-02-11T06:59:46.855Z,99.99
2019-02-11T07:00:46.876Z,99.99
2019-02-11T07:01:46.796Z,99.99
2019-02-11T07:02:46.906Z,99.99
2019-02-11T07:03:47.024Z,99.99
2019-02-11T07:04:46.816Z,99.99
2019-02-11T07:05:46.855Z,99.99
2019-02-11T07:06:46.853Z,99.99
2019-02-11T07:07:46.874Z,99.99
2019-02-11T07:08:47.041Z,99.99
2019-02-11T07:09:46.899Z,99.99
2019-02-11T07:10:55.226Z,99.99
2019-02-11T07:11:46.949Z,99.99
2019-02-11T07:12:46.961Z,99.99
2019-02-11T07:13:47.059Z,99.99
2019-02-11T07:14:47.018Z,99.99
2019-02-11T07:15:47.011Z,99.99
2019-02-11T07:16:47.046Z,99.99
2019-02-11T07:17:47.045Z,99.99
2019-02-11T07:18:47.218Z,99.99
2019-02-11T07:19:47.124Z,99.99
2019-02-11T07:20:47.096Z,99.99
2019-02-11T07:21:47.221Z,99.99
2019-02-11T07:22:47.134Z,99.99
2019-02-11T07:23:47.452Z,99.99
2019-02-11T07:24:47.160Z,99.99
2019-02-11T07:25:47.195Z,99.99
2019-02-11T07:26:47.197Z,99.99
2019-02-11T07:27:47.195Z,99.99
2019-02-11T07:28:47.385Z,99.99
2019-02-11T07:29:47.348Z,99.99
2019-02-11T07:30:47.364Z,99.99
2019-02-11T07:31:47.383Z,99.99
2019-02-11T07:32:47.405Z,99.99
2019-02-11T07:33:47.465Z,99.99
2019-02-11T07:34:47.443Z,99.99
2019-02-11T07:35:47.343Z,99.99
2019-02-11T07:36:47.365Z,99.99
2019-02-11T07:37:47.362Z,99.99
2019-02-11T07:38:47.476Z,99.99
2019-02-11T07:39:47.399Z,99.99
2019-02-11T07:40:47.532Z,99.99
2019-02-11T07:41:47.431Z,99.99
2019-02-11T07:42:47.448Z,99.99
2019-02-11T07:43:47.557Z,99.99
2019-02-11T07:44:47.525Z,99.99
2019-02-11T07:45:47.497Z,99.99
2019-02-11T07:46:47.627Z,99.99
2019-02-11T07:47:47.574Z,99.99
2019-02-11T07:48:47.823Z,99.99
2019-02-11T07:49:47.578Z,99.99
2019-02-11T07:50:47.591Z,99.99
2019-02-11T07:51:47.608Z,99.99
2019-02-11T07:52:47.610Z,99.99
2019-02-11T07:53:47.841Z,99.99
2019-02-11T07:54:47.643Z,99.99
2019-02-11T07:55:47.774Z,99.99
2019-02-11T07:56:47.677Z,99.99
2019-02-11T07:57:47.706Z,99.99
2019-02-11T07:58:47.861Z,99.99
2019-02-11T07:59:47.848Z,99.99
2019-02-11T08:00:47.862Z,99.99
2019-02-11T08:01:47.873Z,99.99
2019-02-11T08:02:47.762Z,99.99
2019-02-11T08:03:47.958Z,99.99
2019-02-11T08:04:47.802Z,99.99
2019-02-11T08:05:47.827Z,99.99
2019-02-11T08:06:47.952Z,99.99
2019-02-11T08:07:47.900Z,99.99
2019-02-11T08:08:48.028Z,99.99
2019-02-11T08:09:48.000Z,99.99
2019-02-11T08:10:47.903Z,99.99
2019-02-11T08:11:47.967Z,99.99
2019-02-11T08:12:48.057Z,99.99
2019-02-11T08:13:48.086Z,99.99
2019-02-11T08:14:48.134Z,99.99
2019-02-11T08:15:47.970Z,99.99
2019-02-11T08:16:48.003Z,99.99
2019-02-11T08:17:48.033Z,99.99
2019-02-11T08:18:48.032Z,99.99
2019-02-11T08:19:48.112Z,99.99
2019-02-11T08:20:48.075Z,99.99
2019-02-11T08:21:48.073Z,99.99
2019-02-11T08:22:48.101Z,99.99
2019-02-11T08:23:48.116Z,99.99
2019-02-11T08:24:48.344Z,99.99
2019-02-11T08:25:48.265Z,99.99
2019-02-11T08:26:48.278Z,99.99
2019-02-11T08:27:48.297Z,99.99
2019-02-11T08:28:48.319Z,99.99
2019-02-11T08:29:48.362Z,99.99
2019-02-11T08:30:48.254Z,99.99
2019-02-11T08:31:48.243Z,99.99
2019-02-11T08:32:48.290Z,99.99
2019-02-11T08:33:48.397Z,99.99
2019-02-11T08:34:48.344Z,99.99
2019-02-11T08:35:48.428Z,99.99
2019-02-11T08:36:48.347Z,99.99
2019-02-11T08:37:48.353Z,99.99
2019-02-11T08:38:48.372Z,99.99
2019-02-11T08:39:48.594Z,99.99
2019-02-11T08:40:48.519Z,99.99
2019-02-11T08:41:48.390Z,99.99
2019-02-11T08:42:48.429Z,99.99
2019-02-11T08:43:48.456Z,99.99
2019-02-11T08:44:48.563Z,99.99
2019-02-11T08:45:48.590Z,99.99
2019-02-11T08:46:48.502Z,99.99
2019-02-11T08:47:48.501Z,99.99
2019-02-11T08:48:48.563Z,99.99
2019-02-11T08:49:48.650Z,99.99
2019-02-11T08:50:48.568Z,99.99
2019-02-11T08:51:48.615Z,99.99
2019-02-11T08:52:48.713Z,99.99
2019-02-11T08:53:48.603Z,99.99
2019-02-11T08:54:48.744Z,99.99
2019-02-11T08:55:48.655Z,99.99
2019-02-11T08:56:48.766Z,99.99
2019-02-11T08:57:48.785Z,99.99
2019-02-11T08:58:48.688Z,99.99
2019-02-11T08:59:48.978Z,99.99
2019-02-11T09:00:48.832Z,99.99
2019-02-11T09:01:48.743Z,99.99
2019-02-11T09:02:48.758Z,99.99
2019-02-11T09:03:48.762Z,99.99
2019-02-11T09:04:48.832Z,99.99
2019-02-11T09:05:48.879Z,99.99
2019-02-11T09:06:48.801Z,99.99
2019-02-11T09:07:48.842Z,99.99
2019-02-11T09:08:48.965Z,99.99
2019-02-11T09:09:48.986Z,99.99
2019-02-11T09:10:48.944Z,99.99
2019-02-11T09:11:49.016Z,99.99
2019-02-11T09:12:48.924Z,99.99
2019-02-11T09:13:48.950Z,99.99
2019-02-11T09:14:49.161Z,99.99
2019-02-11T09:15:55.269Z,99.99
2019-02-11T09:16:49.094Z,99.84
2019-02-11T09:17:48.999Z,98.88
2019-02-11T09:18:49.126Z,98.35
2019-02-11T09:19:49.077Z,98.44
2019-02-11T09:20:49.055Z,96.80
2019-02-11T09:21:49.186Z,96.80
2019-02-11T09:22:49.109Z,95.87
2019-02-11T09:23:49.312Z,94.33
2019-02-11T09:24:49.233Z,94.13
2019-02-11T09:25:49.132Z,93.46
2019-02-11T09:26:49.150Z,92.40
2019-02-11T09:27:49.162Z,92.88
2019-02-11T09:28:49.338Z,91.76
2019-02-11T09:29:49.186Z,91.66
2019-02-11T09:30:49.333Z,90.89
2019-02-11T09:31:49.244Z,90.70
2019-02-11T09:32:49.268Z,90.36
2019-02-11T09:33:49.380Z,89.29
2019-02-11T09:34:49.289Z,89.29
2019-02-11T09:35:49.323Z,88.95
2019-02-11T09:36:49.299Z,88.46
2019-02-11T09:37:49.316Z,87.63
2019-02-11T09:38:49.456Z,85.99
2019-02-11T09:39:49.380Z,85.44
2019-02-11T09:40:49.514Z,84.77
2019-02-11T09:41:49.420Z,84.28
2019-02-11T09:42:49.439Z,83.64
2019-02-11T09:43:49.643Z,82.38
2019-02-11T09:44:49.581Z,83.06
2019-02-11T09:45:49.597Z,82.03
2019-02-11T09:46:49.614Z,80.68
2019-02-11T09:47:49.635Z,80.68
2019-02-11T09:48:49.641Z,80.13
2019-02-11T09:49:49.697Z,79.64
2019-02-11T09:50:49.700Z,78.58
2019-02-11T09:51:49.617Z,79.20
2019-02-11T09:52:50.789Z,78.91
2019-02-11T09:53:49.747Z,77.84
2019-02-11T09:54:49.747Z,77.35
2019-02-11T09:55:49.780Z,77.35
2019-02-11T09:56:49.672Z,77.45
2019-02-11T09:57:49.835Z,77.84
2019-02-11T09:58:49.734Z,77.45
2019-02-11T09:59:49.792Z,77.64
2019-02-11T10:00:49.766Z,78.09
2019-02-11T10:01:49.799Z,78.13
2019-02-11T10:02:49.920Z,77.87
2019-02-11T10:03:49.830Z,76.81
2019-02-11T10:04:49.954Z,75.97
2019-02-11T10:05:49.972Z,75.97
2019-02-11T10:06:49.945Z,75.23
2019-02-11T10:07:49.903Z,73.41
2019-02-11T10:08:49.932Z,73.12
2019-02-11T10:09:50.065Z,72.25
2019-02-11T10:10:50.071Z,72.83
2019-02-11T10:11:50.042Z,71.86
2019-02-11T10:12:50.113Z,71.56
2019-02-11T10:13:50.029Z,71.31
2019-02-11T10:14:50.160Z,71.99
2019-02-11T10:15:50.054Z,71.15
2019-02-11T10:16:50.228Z,70.47
2019-02-11T10:17:50.217Z,69.23
2019-02-11T10:18:50.240Z,69.23
2019-02-11T10:19:50.252Z,69.13
2019-02-11T10:20:50.169Z,69.23
2019-02-11T10:21:50.361Z,69.33
2019-02-11T10:22:50.214Z,69.10
2019-02-11T10:23:50.223Z,70.07
2019-02-11T10:24:50.234Z,70.43
2019-02-11T10:25:50.267Z,70.43
2019-02-11T10:26:50.446Z,70.33
2019-02-11T10:27:50.307Z,70.23
2019-02-11T10:28:50.311Z,70.62
2019-02-11T10:29:50.458Z,70.47
2019-02-11T10:30:50.399Z,70.17
2019-02-11T10:31:50.472Z,69.82
2019-02-11T10:32:50.398Z,68.29
2019-02-11T10:33:50.429Z,68.10
2019-02-11T10:34:50.455Z,66.47
2019-02-11T10:35:50.458Z,65.72
2019-02-11T10:36:50.583Z,65.14
2019-02-11T10:37:50.495Z,65.33
2019-02-11T10:38:50.637Z,65.17
2019-02-11T10:39:50.537Z,64.29
2019-02-11T10:40:50.631Z,64.12
2019-02-11T10:41:50.671Z,63.47
2019-02-11T10:42:50.632Z,62.49
2019-02-11T10:43:50.751Z,62.39
2019-02-11T10:44:50.760Z,62.56
2019-02-11T10:45:50.795Z,63.34
2019-02-11T10:46:50.793Z,64.39
2019-02-11T10:47:50.725Z,64.65
2019-02-11T10:48:50.742Z,65.10
2019-02-11T10:49:50.874Z,65.59
2019-02-11T10:50:50.755Z,66.63
2019-02-11T10:51:50.902Z,67.12
2019-02-11T10:52:50.861Z,66.63
2019-02-11T10:53:50.862Z,66.83
2019-02-11T10:54:50.870Z,66.66
2019-02-11T10:55:50.880Z,66.53
2019-02-11T10:56:51.119Z,66.47
2019-02-11T10:57:51.041Z,65.98
2019-02-11T10:58:50.944Z,66.02
2019-02-11T10:59:51.089Z,64.94
2019-02-11T11:00:51.006Z,65.14
2019-02-11T11:01:51.324Z,65.23
2019-02-11T11:02:51.024Z,65.14
2019-02-11T11:03:51.049Z,64.16
2019-02-11T11:04:51.105Z,64.65
2019-02-11T11:05:51.093Z,64.39
2019-02-11T11:06:51.256Z,64.12
2019-02-11T11:07:51.129Z,63.34
2019-02-11T11:08:51.174Z,61.61
2019-02-11T11:09:51.174Z,61.32
2019-02-11T11:10:51.195Z,61.74
2019-02-11T11:11:51.437Z,61.41
2019-02-11T11:12:51.241Z,60.73
2019-02-11T11:13:51.377Z,61.15
2019-02-11T11:14:51.284Z,61.25
2019-02-11T11:15:51.300Z,61.61
2019-02-11T11:16:51.390Z,61.80
2019-02-11T11:17:51.344Z,62.32
2019-02-11T11:18:51.413Z,61.05
2019-02-11T11:19:51.443Z,60.17
2019-02-11T11:20:51.531Z,60.37
2019-02-11T11:21:51.660Z,61.35
2019-02-11T11:22:51.464Z,60.37
2019-02-11T11:23:51.500Z,59.98
2019-02-11T11:24:51.495Z,60.47
2019-02-11T11:25:51.522Z,60.40
2019-02-11T11:26:51.600Z,59.06
2019-02-11T11:27:51.578Z,58.27
2019-02-11T11:28:51.598Z,58.96
2019-02-11T11:29:51.730Z,58.37
2019-02-11T11:30:51.631Z,57.91
2019-02-11T11:31:51.792Z,57.45
2019-02-11T11:32:51.798Z,56.30
2019-02-11T11:33:51.699Z,56.10
2019-02-11T11:34:51.840Z,55.93
2019-02-11T11:35:51.764Z,54.91
2019-02-11T11:36:51.880Z,52.77
2019-02-11T11:37:51.916Z,52.67
2019-02-11T11:38:51.944Z,52.38
2019-02-11T11:39:51.831Z,52.35
2019-02-11T11:40:51.981Z,53.50
2019-02-11T11:41:52.052Z,52.77
2019-02-11T11:42:51.940Z,52.77
2019-02-11T11:43:52.052Z,51.91
2019-02-11T11:44:51.958Z,51.30
2019-02-11T11:45:51.989Z,51.57
2019-02-11T11:46:52.074Z,52.82
2019-02-11T11:47:52.121Z,54.27
2019-02-11T11:48:52.173Z,53.50
2019-02-11T11:49:52.196Z,52.38
2019-02-11T11:50:52.114Z,51.20
2019-02-11T11:51:52.239Z,51.22
2019-02-11T11:52:52.151Z,50.37
2019-02-11T11:53:52.172Z,49.87
2019-02-11T11:54:52.327Z,49.87
2019-02-11T11:55:52.245Z,49.43
2019-02-11T11:56:52.431Z,48.44
2019-02-11T11:57:52.398Z,48.00
2019-02-11T11:58:52.425Z,47.13
2019-02-11T11:59:52.341Z,47.60
2019-02-11T12:00:52.343Z,47.68
2019-02-11T12:01:52.517Z,47.68
2019-02-11T12:03:01.804Z,47.48
2019-02-11T12:03:52.429Z,47.68
2019-02-11T12:04:52.468Z,47.68
2019-02-11T12:05:52.603Z,47.97
2019-02-11T12:06:52.606Z,47.48
2019-02-11T12:07:52.559Z,47.41
2019-02-11T12:08:52.718Z,46.72
2019-02-11T12:09:52.601Z,46.74
2019-02-11T12:10:52.643Z,46.34
2019-02-11T12:11:52.909Z,46.25
2019-02-11T12:12:52.745Z,46.04
2019-02-11T12:13:52.702Z,47.11
2019-02-11T12:14:52.843Z,47.78
2019-02-11T12:15:52.742Z,47.68
2019-02-11T12:16:59.549Z,46.94
2019-02-11T12:17:52.794Z,45.40
2019-02-11T12:18:52.840Z,45.40
2019-02-11T12:19:52.977Z,44.64
2019-02-11T12:20:52.926Z,44.14
2019-02-11T12:21:53.125Z,44.61
2019-02-11T12:22:53.044Z,44.26
2019-02-11T12:23:53.001Z,43.39
2019-02-11T12:24:53.100Z,43.21
2019-02-11T12:25:53.018Z,42.72
2019-02-11T12:26:53.143Z,43.35
2019-02-11T12:27:53.069Z,43.84
2019-02-11T12:28:53.216Z,44.06
2019-02-11T12:29:53.103Z,43.21
2019-02-11T12:30:53.907Z,42.14
2019-02-11T12:31:53.460Z,42.25
2019-02-11T12:32:54.903Z,41.67
2019-02-11T12:33:53.244Z,41.08
2019-02-11T12:34:53.263Z,40.50
2019-02-11T12:35:53.280Z,40.78
2019-02-11T12:36:53.434Z,41.63
2019-02-11T12:37:53.364Z,41.95
2019-02-11T12:38:53.381Z,41.18
2019-02-11T12:39:53.515Z,41.36
2019-02-11T12:40:53.407Z,41.38
2019-02-11T12:41:53.584Z,41.97
2019-02-11T12:42:54.214Z,41.36
2019-02-11T12:43:53.624Z,42.90
2019-02-11T12:44:53.566Z,44.14
2019-02-11T12:45:53.680Z,44.54
2019-02-11T12:46:53.757Z,44.24
2019-02-11T12:47:53.733Z,45.75
2019-02-11T12:48:53.861Z,47.78
2019-02-11T12:49:53.675Z,48.32
2019-02-11T12:50:53.808Z,49.06
2019-02-11T12:51:53.888Z,50.42
2019-02-11T12:52:53.751Z,49.77
2019-02-11T12:53:53.896Z,49.16